Time;durP1;ratioP1;P1;durP2;ratioP2;P2;SDS_P1;SDS_P2;PMS_P1;PMS_P2;Temp;Humidity;BMP_temperature;BMP_pressure;BME280_temperature;BME280_humidity;BME280_pressure;Samples;Min_cycle;Max_cycle;Signal;HPM_P1;HPM_P2
2023/08/08 00:02:00;;;;;;;;;;;;;;;26.57;36.92;99088.03;5112276;28;19923;-77
2023/08/08 00:04:25;;;;;;;;;;;;;;;26.54;36.36;99084.03;5112379;28;19959;-76
2023/08/08 00:06:51;;;;;;;;;;;;;;;26.56;36.24;99078.31;5112252;28;20006;-79
2023/08/08 00:09:16;;;;;;;;;;;;;;;26.51;36.06;99084.59;5112183;28;19911;-77
2023/08/08 00:11:41;;;;;;;;;;;;;;;26.55;35.78;99085.63;5112356;28;20311;-77
2023/08/08 00:14:07;;;;;;;;;;;;;;;26.50;35.87;99088.41;5093935;28;19912;-78
2023/08/08 00:16:32;;;;;;;;;;;;;;;26.42;35.54;99090.97;5112167;28;19912;-78
2023/08/08 00:18:57;;;;;;;;;;;;;;;26.37;35.54;99089.16;5112243;28;19965;-77
2023/08/08 00:21:22;;;;;;;;;;;;;;;26.44;35.20;99094.19;5093811;28;20010;-76
2023/08/08 00:23:48;;;;;;;;;;;;;;;26.45;35.03;99091.19;5112216;28;19923;-76
2023/08/08 00:26:13;;;;;;;;;;;;;;;26.40;34.83;99099.38;5093879;28;19912;-79
2023/08/08 00:28:38;;;;;;;;;;;;;;;26.35;34.70;99093.25;5112048;28;19912;-78
2023/08/08 00:31:04;;;;;;;;;;;;;;;26.43;34.50;99098.81;5093713;28;19923;-77
2023/08/08 00:33:29;;;;;;;;;;;;;;;26.44;34.20;99097.72;5112010;28;19915;-77
2023/08/08 00:35:54;;;;;;;;;;;;;;;26.40;34.41;99095.88;5112016;28;19912;-77
2023/08/08 00:38:19;;;;;;;;;;;;;;;26.41;34.11;99106.41;5111990;28;19912;-77
2023/08/08 00:40:45;;;;;;;;;;;;;;;26.42;34.40;99105.31;5093932;28;20354;-78
2023/08/08 00:43:10;;;;;;;;;;;;;;;26.44;34.13;99102.31;5093799;28;19912;-78
2023/08/08 00:45:36;;;;;;;;;;;;;;;26.43;34.13;99101.50;5111817;28;19919;-75
2023/08/08 00:48:01;;;;;;;;;;;;;;;26.39;34.04;99097.78;5111742;28;19990;-77
2023/08/08 00:50:27;;;;;;;;;;;;;;;26.41;34.02;99106.41;5111537;28;20369;-77
2023/08/08 00:52:52;;;;;;;;;;;;;;;26.39;34.11;99105.91;5111607;28;19916;-77
2023/08/08 00:55:17;;;;;;;;;;;;;;;26.36;33.87;99106.50;5111767;28;19918;-77
2023/08/08 00:57:43;;;;;;;;;;;;;;;26.34;33.87;99107.88;5111867;28;19965;-76
2023/08/08 01:00:11;;;;;;;;;;;;;;;26.33;34.20;99107.06;5111434;28;19927;-77
2023/08/08 01:02:37;;;;;;;;;;;;;;;26.37;34.24;99112.72;5111706;28;19912;-77
2023/08/08 01:05:03;;;;;;;;;;;;;;;26.39;34.02;99108.63;5111705;28;20312;-78
2023/08/08 01:07:47;;;;;;;;;;;;;;;26.39;34.16;99114.03;5094543;28;19911;-78
2023/08/08 01:10:14;;;;;;;;;;;;;;;26.41;34.20;99116.44;5115336;28;19911;-76
2023/08/08 01:12:42;;;;;;;;;;;;;;;26.43;34.32;99115.06;5115280;28;20304;-76
2023/08/08 01:15:08;;;;;;;;;;;;;;;26.36;34.57;99111.91;5115436;28;19916;-77
2023/08/08 01:17:35;;;;;;;;;;;;;;;26.33;34.48;99112.47;5116110;28;19912;-76
2023/08/08 01:20:00;;;;;;;;;;;;;;;26.32;34.45;99113.56;5115649;28;19998;-75
2023/08/08 01:22:29;;;;;;;;;;;;;;;26.33;34.64;99112.47;5123462;28;19985;-77
2023/08/08 01:24:55;;;;;;;;;;;;;;;26.37;34.78;99115.41;5127693;28;19933;-76
2023/08/08 01:27:21;;;;;;;;;;;;;;;26.34;34.64;99122.22;5116252;28;19995;-77
2023/08/08 01:29:46;;;;;;;;;;;;;;;26.26;35.16;99126.34;5115878;28;19934;-77
2023/08/08 01:32:12;;;;;;;;;;;;;;;26.12;35.50;99122.75;5097332;28;19912;-78
2023/08/08 01:34:37;;;;;;;;;;;;;;;26.08;35.06;99126.31;5114905;28;19911;-75
2023/08/08 01:37:09;;;;;;;;;;;;;;;26.07;35.35;99130.13;5114770;28;19911;-77
2023/08/08 01:39:34;;;;;;;;;;;;;;;26.04;35.63;99122.59;5114589;28;20022;-77
2023/08/08 01:42:00;;;;;;;;;;;;;;;26.07;35.55;99125.50;5114838;28;20003;-77
2023/08/08 01:44:26;;;;;;;;;;;;;;;26.12;35.41;99133.56;5114421;28;19915;-78
2023/08/08 01:46:52;;;;;;;;;;;;;;;26.13;35.56;99127.06;5114606;28;19918;-78
2023/08/08 01:49:17;;;;;;;;;;;;;;;26.16;35.88;99129.19;5114792;28;20376;-80
2023/08/08 01:51:42;;;;;;;;;;;;;;;26.19;35.70;99138.63;5114548;28;20300;-77
2023/08/08 01:54:08;;;;;;;;;;;;;;;26.11;36.00;99133.88;5114607;28;19911;-78
2023/08/08 01:56:33;;;;;;;;;;;;;;;26.11;35.95;99136.56;5114400;28;19912;-76
2023/08/08 01:58:58;;;;;;;;;;;;;;;26.11;35.94;99140.06;5114333;28;19911;-76
2023/08/08 02:01:24;;;;;;;;;;;;;;;26.09;35.89;99144.97;5114521;28;20376;-76
2023/08/08 02:03:49;;;;;;;;;;;;;;;26.07;36.29;99149.88;5114472;28;20395;-77
2023/08/08 02:06:15;;;;;;;;;;;;;;;26.03;36.93;99143.44;5114636;28;19965;-77
2023/08/08 02:08:40;;;;;;;;;;;;;;;26.03;36.50;99156.16;5114771;28;20311;-77
2023/08/08 02:11:05;;;;;;;;;;;;;;;26.00;36.88;99159.41;5114250;28;19934;-78
2023/08/08 02:13:30;;;;;;;;;;;;;;;25.96;37.17;99157.28;5114222;28;20304;-79
2023/08/08 02:15:56;;;;;;;;;;;;;;;25.93;37.57;99165.97;5114310;28;19967;-77
2023/08/08 02:18:21;;;;;;;;;;;;;;;25.95;36.90;99154.84;5114198;28;19918;-77
2023/08/08 02:20:46;;;;;;;;;;;;;;;25.98;37.66;99157.78;5113973;28;19916;-78
2023/08/08 02:23:12;;;;;;;;;;;;;;;26.00;37.28;99162.91;5114163;28;19934;-76
2023/08/08 02:25:37;;;;;;;;;;;;;;;26.00;38.04;99165.63;5114111;28;19918;-78
2023/08/08 02:28:02;;;;;;;;;;;;;;;25.98;37.28;99163.19;5095716;28;19912;-77
2023/08/08 02:30:27;;;;;;;;;;;;;;;25.87;37.66;99172.53;5113888;28;19958;-76
2023/08/08 02:32:53;;;;;;;;;;;;;;;25.88;38.48;99173.31;5113601;28;20050;-77
2023/08/08 02:35:18;;;;;;;;;;;;;;;25.86;38.61;99170.91;5113520;28;19912;-79
2023/08/08 02:37:43;;;;;;;;;;;;;;;25.88;38.58;99181.44;5113518;28;19922;-78
2023/08/08 02:40:09;;;;;;;;;;;;;;;25.89;39.07;99186.56;5113557;28;19916;-78
2023/08/08 02:42:34;;;;;;;;;;;;;;;25.93;38.45;99184.09;5095346;28;19959;-77
2023/08/08 02:45:00;;;;;;;;;;;;;;;25.95;38.83;99192.72;5095257;28;19916;-76
2023/08/08 02:47:25;;;;;;;;;;;;;;;25.97;38.50;99185.13;5095142;28;19915;-78
2023/08/08 02:49:50;;;;;;;;;;;;;;;26.00;37.76;99197.28;5113178;28;19919;-77
2023/08/08 02:52:16;;;;;;;;;;;;;;;25.92;38.81;99199.50;5095027;28;20002;-77
2023/08/08 02:54:41;;;;;;;;;;;;;;;25.85;39.56;99200.94;5113227;28;19920;-77
2023/08/08 02:57:06;;;;;;;;;;;;;;;25.85;39.04;99203.66;5113285;28;19911;-77
2023/08/08 02:59:31;;;;;;;;;;;;;;;25.82;40.00;99206.94;5113168;28;19924;-77
2023/08/08 03:01:57;;;;;;;;;;;;;;;25.77;40.33;99209.69;5113431;28;20308;-78
2023/08/08 03:04:22;;;;;;;;;;;;;;;25.75;40.05;99209.16;5094905;28;20300;-78
2023/08/08 03:06:47;;;;;;;;;;;;;;;25.75;39.56;99207.28;5094865;28;20010;-78
2023/08/08 03:09:13;;;;;;;;;;;;;;;25.77;39.44;99206.97;5112937;28;19912;-77
2023/08/08 03:11:41;;;;;;;;;;;;;;;25.71;39.76;99198.13;5113048;28;20384;-78
2023/08/08 03:14:06;;;;;;;;;;;;;;;25.69;40.48;99199.50;5112955;28;19912;-77
2023/08/08 03:16:31;;;;;;;;;;;;;;;25.69;40.63;99210.31;5112859;28;20022;-77
2023/08/08 03:18:57;;;;;;;;;;;;;;;25.67;41.23;99207.09;5094762;28;20006;-78
2023/08/08 03:21:22;;;;;;;;;;;;;;;25.57;41.06;99202.53;5112665;28;19912;-77
2023/08/08 03:23:47;;;;;;;;;;;;;;;25.52;41.28;99206.09;5112705;28;19962;-77
2023/08/08 03:26:12;;;;;;;;;;;;;;;25.45;41.53;99218.34;5112836;28;19912;-78
2023/08/08 03:28:37;;;;;;;;;;;;;;;25.43;41.08;99218.63;5112903;28;20394;-77
2023/08/08 03:31:03;;;;;;;;;;;;;;;25.39;41.60;99220.28;5112436;28;19916;-78
2023/08/08 03:33:28;;;;;;;;;;;;;;;25.31;42.09;99226.28;5112739;28;19912;-77
2023/08/08 03:35:54;;;;;;;;;;;;;;;25.29;42.46;99229.28;5094638;28;20018;-77
2023/08/08 03:38:19;;;;;;;;;;;;;;;25.24;42.15;99234.69;5112943;28;19941;-77
2023/08/08 03:40:44;;;;;;;;;;;;;;;25.22;42.58;99225.25;5112724;28;20370;-76
2023/08/08 03:43:09;;;;;;;;;;;;;;;25.20;42.41;99228.22;5112749;28;19922;-77
2023/08/08 03:45:35;;;;;;;;;;;;;;;25.17;41.94;99239.59;5112436;28;19934;-77
2023/08/08 03:48:00;;;;;;;;;;;;;;;25.10;42.43;99247.22;5112673;28;19915;-77
2023/08/08 03:50:25;;;;;;;;;;;;;;;25.10;42.15;99243.72;5112595;28;19912;-78
2023/08/08 03:52:50;;;;;;;;;;;;;;;25.09;41.99;99244.78;5094165;28;19925;-78
2023/08/08 03:55:16;;;;;;;;;;;;;;;25.04;42.45;99240.22;5112396;28;19935;-77
2023/08/08 03:57:42;;;;;;;;;;;;;;;25.02;43.48;99239.72;5112485;28;20312;-77
2023/08/08 04:00:11;;;;;;;;;;;;;;;25.12;41.17;99236.94;5112363;28;19920;-77
2023/08/08 04:02:36;;;;;;;;;;;;;;;25.10;41.76;99243.72;5094740;28;19918;-77
2023/08/08 04:05:02;;;;;;;;;;;;;;;24.99;43.50;99245.66;5112431;28;20300;-77
2023/08/08 04:07:27;;;;;;;;;;;;;;;24.88;43.50;99255.69;5112582;28;19915;-79
2023/08/08 04:09:53;;;;;;;;;;;;;;;24.83;43.80;99250.31;5112560;28;20376;-77
2023/08/08 04:12:18;;;;;;;;;;;;;;;24.71;44.31;99263.34;5112391;28;19935;-77
2023/08/08 04:14:43;;;;;;;;;;;;;;;24.66;44.36;99256.06;5094042;28;19990;-77
2023/08/08 04:17:08;;;;;;;;;;;;;;;24.66;44.19;99266.06;5112118;28;20020;-77
2023/08/08 04:19:34;;;;;;;;;;;;;;;24.57;43.39;99273.94;5112282;28;19915;-77
2023/08/08 04:21:59;;;;;;;;;;;;;;;24.60;44.31;99265.28;5112168;28;19969;-78
2023/08/08 04:24:24;;;;;;;;;;;;;;;24.60;44.75;99281.47;5112507;28;20415;-79
2023/08/08 04:26:50;;;;;;;;;;;;;;;24.58;44.69;99278.25;5112198;28;19915;-76
2023/08/08 04:29:15;;;;;;;;;;;;;;;24.53;44.06;99280.16;5112240;28;19969;-77
2023/08/08 04:31:40;;;;;;;;;;;;;;;24.53;44.70;99291.75;5112302;28;20316;-76
2023/08/08 04:34:05;;;;;;;;;;;;;;;24.50;44.29;99286.88;5112383;28;19911;-78
2023/08/08 04:36:31;;;;;;;;;;;;;;;24.47;43.97;99297.44;5104291;28;19912;-76
2023/08/08 04:38:56;;;;;;;;;;;;;;;24.42;45.89;99298.25;5101991;28;19911;-77
2023/08/08 04:41:21;;;;;;;;;;;;;;;24.44;43.86;99300.69;5112763;28;19974;-78
2023/08/08 04:43:47;;;;;;;;;;;;;;;24.35;44.67;99298.53;5115996;28;20380;-78
2023/08/08 04:46:12;;;;;;;;;;;;;;;24.27;44.32;99314.47;5115788;28;19912;-78
2023/08/08 04:48:37;;;;;;;;;;;;;;;24.17;45.33;99309.06;5115802;28;19961;-77
2023/08/08 04:51:06;;;;;;;;;;;;;;;24.12;45.37;99320.69;5115616;28;19912;-77
2023/08/08 04:53:31;;;;;;;;;;;;;;;24.08;47.67;99325.00;5115558;28;19912;-78
2023/08/08 04:55:56;;;;;;;;;;;;;;;24.08;46.42;99327.69;5097258;28;20312;-77
2023/08/08 04:58:22;;;;;;;;;;;;;;;24.12;45.99;99330.66;5119343;28;19912;-78
2023/08/08 05:00:47;;;;;;;;;;;;;;;24.00;45.93;99337.16;5127087;28;20053;-77
2023/08/08 05:03:12;;;;;;;;;;;;;;;23.92;47.02;99350.38;5124340;28;20380;-78
2023/08/08 05:05:37;;;;;;;;;;;;;;;23.74;46.78;99352.50;5115957;28;20028;-77
2023/08/08 05:08:03;;;;;;;;;;;;;;;23.64;47.51;99348.97;5115878;28;19912;-78
2023/08/08 05:10:28;;;;;;;;;;;;;;;23.66;48.07;99346.81;5115933;28;19912;-78
2023/08/08 05:12:53;;;;;;;;;;;;;;;23.58;48.20;99353.56;5115260;28;19950;-78
2023/08/08 05:15:19;;;;;;;;;;;;;;;23.62;47.24;99361.91;5115041;28;19908;-78
2023/08/08 05:17:44;;;;;;;;;;;;;;;23.68;46.47;99375.13;5115097;28;19959;-78
2023/08/08 05:20:09;;;;;;;;;;;;;;;23.60;47.92;99367.56;5115245;28;19915;-78
2023/08/08 05:22:35;;;;;;;;;;;;;;;23.63;47.34;99375.13;5096696;28;19981;-78
2023/08/08 05:25:00;;;;;;;;;;;;;;;23.57;48.14;99383.47;5115097;28;19968;-78
2023/08/08 05:27:26;;;;;;;;;;;;;;;23.54;49.27;99386.66;5114888;28;19918;-78
2023/08/08 05:29:51;;;;;;;;;;;;;;;23.48;48.16;99401.22;5115156;28;19976;-77
2023/08/08 05:32:16;;;;;;;;;;;;;;;23.40;48.63;99406.03;5115582;28;19919;-78
2023/08/08 05:34:41;;;;;;;;;;;;;;;23.32;49.45;99417.31;5115350;28;19915;-78
2023/08/08 05:37:07;;;;;;;;;;;;;;;23.22;49.57;99403.81;5115130;28;20343;-78
2023/08/08 05:39:32;;;;;;;;;;;;;;;23.14;49.60;99415.09;5096628;28;19955;-77
2023/08/08 05:41:57;;;;;;;;;;;;;;;23.18;50.03;99420.78;5114930;28;19911;-78
2023/08/08 05:44:22;;;;;;;;;;;;;;;23.20;49.16;99427.53;5114238;28;19918;-78
2023/08/08 05:46:48;;;;;;;;;;;;;;;23.29;49.98;99439.41;5114343;28;20389;-78
2023/08/08 05:49:13;;;;;;;;;;;;;;;23.29;51.40;99452.88;5114402;28;19955;-78
2023/08/08 05:51:39;;;;;;;;;;;;;;;23.10;51.17;99451.72;5114448;28;20392;-78
2023/08/08 05:54:05;;;;;;;;;;;;;;;23.10;51.30;99451.72;5113717;28;20345;-78
2023/08/08 05:56:37;;;;;;;;;;;;;;;23.22;51.45;99443.41;5114168;28;19911;-78
2023/08/08 05:59:02;;;;;;;;;;;;;;;23.32;49.21;99459.63;5114772;28;19919;-78
2023/08/08 06:01:27;;;;;;;;;;;;;;;23.32;50.56;99465.81;5096024;28;19916;-79
2023/08/08 06:03:53;;;;;;;;;;;;;;;23.37;51.07;99463.16;5114558;28;19973;-78
2023/08/08 06:06:18;;;;;;;;;;;;;;;23.36;50.54;99474.19;5096067;28;19912;-78
2023/08/08 06:08:43;;;;;;;;;;;;;;;23.36;51.33;99491.16;5114373;28;20343;-78
2023/08/08 06:11:09;;;;;;;;;;;;;;;23.10;52.91;99484.84;5114515;28;20041;-78
2023/08/08 06:13:34;;;;;;;;;;;;;;;23.04;51.86;99499.34;5114252;28;20316;-76
2023/08/08 06:16:01;;;;;;;;;;;;;;;22.74;52.43;99504.50;5113956;28;20380;-77
2023/08/08 06:18:26;;;;;;;;;;;;;;;22.58;53.65;99524.28;5114393;28;19997;-77
2023/08/08 06:20:51;;;;;;;;;;;;;;;22.52;53.54;99521.56;5113990;28;20396;-78
2023/08/08 06:23:16;;;;;;;;;;;;;;;22.44;54.10;99534.66;5114038;28;19912;-78
2023/08/08 06:25:42;;;;;;;;;;;;;;;22.34;53.72;99554.22;5104141;28;20006;-78
2023/08/08 06:28:07;;;;;;;;;;;;;;;22.24;53.83;99531.75;5101669;28;19930;-78
2023/08/08 06:30:32;;;;;;;;;;;;;;;22.25;54.46;99539.56;5095456;28;19911;-78
2023/08/08 06:32:57;;;;;;;;;;;;;;;22.22;54.58;99550.84;5113633;28;19954;-78
2023/08/08 06:35:23;;;;;;;;;;;;;;;22.13;54.79;99536.22;5111560;28;19916;-78
2023/08/08 06:37:48;;;;;;;;;;;;;;;22.12;54.45;99535.41;5078461;28;20439;-78
2023/08/08 06:40:13;;;;;;;;;;;;;;;22.10;54.84;99534.84;5096040;28;19926;-78
2023/08/08 06:42:39;;;;;;;;;;;;;;;22.11;54.32;99543.72;5113649;28;19968;-78
2023/08/08 06:45:04;;;;;;;;;;;;;;;22.23;53.57;99539.00;5113544;28;19920;-78
2023/08/08 06:47:30;;;;;;;;;;;;;;;22.25;53.26;99558.41;5113515;28;19912;-79
2023/08/08 06:49:55;;;;;;;;;;;;;;;22.11;54.25;99562.56;5113715;28;19916;-78
2023/08/08 06:52:21;;;;;;;;;;;;;;;21.99;54.53;99565.34;5113326;28;20393;-78
2023/08/08 06:54:46;;;;;;;;;;;;;;;22.03;54.24;99563.00;5108248;28;19915;-77
2023/08/08 06:57:12;;;;;;;;;;;;;;;22.07;54.78;99566.81;5097931;28;19931;-77
2023/08/08 06:59:37;;;;;;;;;;;;;;;22.03;54.78;99576.44;5074482;28;20387;-79
2023/08/08 07:02:02;;;;;;;;;;;;;;;21.94;54.30;99583.31;5103197;28;20002;-75
2023/08/08 07:04:28;;;;;;;;;;;;;;;21.88;54.78;99587.81;5112561;28;19919;-78
2023/08/08 07:06:53;;;;;;;;;;;;;;;21.86;56.64;99584.56;5105607;28;19938;-78
2023/08/08 07:09:18;;;;;;;;;;;;;;;21.91;56.39;99576.56;5074748;28;19974;-77
2023/08/08 07:11:44;;;;;;;;;;;;;;;21.93;54.92;99579.81;5107945;28;19923;-77
2023/08/08 07:14:09;;;;;;;;;;;;;;;21.95;56.03;99582.25;5088596;28;20447;-77
2023/08/08 07:16:34;;;;;;;;;;;;;;;21.99;55.38;99586.88;5095284;28;19920;-76
2023/08/08 07:18:59;;;;;;;;;;;;;;;21.93;55.20;99571.72;5093741;28;19963;-77
2023/08/08 07:21:25;;;;;;;;;;;;;;;21.93;54.95;99576.31;5092466;28;19919;-78
2023/08/08 07:23:50;;;;;;;;;;;;;;;21.94;54.85;99580.63;5095802;28;19927;-78
2023/08/08 07:26:15;;;;;;;;;;;;;;;21.87;56.07;99592.38;5113026;28;19955;-77
2023/08/08 07:28:41;;;;;;;;;;;;;;;21.96;55.54;99594.63;5095492;28;19916;-78
2023/08/08 07:31:06;;;;;;;;;;;;;;;21.98;55.78;99595.19;5090126;28;19916;-78
2023/08/08 07:33:31;;;;;;;;;;;;;;;22.04;54.26;99600.41;5109852;28;19916;-77
2023/08/08 07:35:56;;;;;;;;;;;;;;;22.01;55.08;99610.81;5102146;28;19916;-77
2023/08/08 07:38:22;;;;;;;;;;;;;;;22.04;55.33;99608.47;5104551;28;19977;-77
2023/08/08 07:40:48;;;;;;;;;;;;;;;21.99;55.10;99616.44;5074145;28;19916;-77
2023/08/08 07:43:13;;;;;;;;;;;;;;;21.89;57.26;99606.38;5098977;28;20039;-78
2023/08/08 07:45:39;;;;;;;;;;;;;;;21.89;57.34;99610.94;5102149;28;19912;-78
2023/08/08 07:48:04;;;;;;;;;;;;;;;21.81;57.10;99603.31;5092299;28;19916;-77
2023/08/08 07:50:30;;;;;;;;;;;;;;;21.94;55.86;99611.00;5092117;28;20375;-77
2023/08/08 07:52:55;;;;;;;;;;;;;;;21.89;56.66;99619.00;5080539;28;19915;-77
2023/08/08 07:55:20;;;;;;;;;;;;;;;21.87;55.84;99616.56;5112192;28;19912;-77
2023/08/08 07:57:46;;;;;;;;;;;;;;;21.84;56.72;99622.44;5083092;28;19968;-77
2023/08/08 08:00:12;;;;;;;;;;;;;;;21.89;56.89;99621.69;5091991;28;19923;-78
2023/08/08 08:02:38;;;;;;;;;;;;;;;21.91;55.37;99624.13;5091819;28;19912;-77
2023/08/08 08:05:05;;;;;;;;;;;;;;;21.90;56.38;99623.31;5092118;28;20372;-78
2023/08/08 08:07:31;;;;;;;;;;;;;;;21.83;56.10;99617.31;5111940;28;20012;-78
2023/08/08 08:09:57;;;;;;;;;;;;;;;21.79;56.36;99614.31;5097446;28;19912;-77
2023/08/08 08:12:22;;;;;;;;;;;;;;;21.75;58.23;99620.44;5109269;28;19922;-77
2023/08/08 08:14:47;;;;;;;;;;;;;;;21.70;58.40;99626.56;5104874;28;20388;-77
2023/08/08 08:17:13;;;;;;;;;;;;;;;21.79;57.30;99640.38;5092314;28;19915;-78
2023/08/08 08:19:38;;;;;;;;;;;;;;;21.78;56.46;99641.44;5096739;28;19915;-79
2023/08/08 08:22:03;;;;;;;;;;;;;;;21.84;56.33;99643.13;5115899;28;20387;-78
2023/08/08 08:24:29;;;;;;;;;;;;;;;21.78;56.00;99644.13;5115373;28;19965;-77
2023/08/08 08:26:55;;;;;;;;;;;;;;;21.80;55.77;99642.00;5114380;28;20312;-78
2023/08/08 08:29:20;;;;;;;;;;;;;;;21.80;56.29;99640.13;5115816;28;19911;-77
2023/08/08 08:31:45;;;;;;;;;;;;;;;21.83;55.27;99642.31;5115744;28;19912;-78
2023/08/08 08:34:10;;;;;;;;;;;;;;;21.78;57.00;99644.94;5115721;28;19976;-77
2023/08/08 08:36:36;;;;;;;;;;;;;;;21.79;55.67;99645.75;5114405;28;19961;-77
2023/08/08 08:39:01;;;;;;;;;;;;;;;21.77;55.94;99643.31;5100597;28;19923;-77
2023/08/08 08:41:27;;;;;;;;;;;;;;;21.84;55.46;99661.94;5111383;28;20390;-77
2023/08/08 08:43:53;;;;;;;;;;;;;;;21.88;55.89;99660.38;5105098;28;19919;-77
2023/08/08 08:46:20;;;;;;;;;;;;;;;21.81;56.26;99655.19;5098284;28;19963;-78
2023/08/08 08:48:47;;;;;;;;;;;;;;;21.79;56.22;99661.88;5110752;28;19916;-78
2023/08/08 08:51:12;;;;;;;;;;;;;;;21.73;56.15;99666.38;5115582;28;19919;-77
2023/08/08 08:53:39;;;;;;;;;;;;;;;21.65;56.90;99674.03;5097129;28;19912;-78
2023/08/08 08:56:05;;;;;;;;;;;;;;;21.60;56.22;99672.09;5113586;28;19919;-78
2023/08/08 08:58:30;;;;;;;;;;;;;;;21.48;57.04;99674.03;5097799;28;20392;-78
2023/08/08 09:00:56;;;;;;;;;;;;;;;21.38;56.24;99669.31;5113261;28;19927;-78
2023/08/08 09:03:22;;;;;;;;;;;;;;;21.37;57.48;99670.38;5098848;28;19912;-78
2023/08/08 09:05:48;;;;;;;;;;;;;;;21.25;59.14;99667.78;5107680;28;20436;-78
2023/08/08 09:08:14;;;;;;;;;;;;;;;21.28;57.28;99679.09;5099085;28;19923;-79
2023/08/08 09:10:40;;;;;;;;;;;;;;;21.29;56.82;99670.78;5094705;28;19919;-78
2023/08/08 09:13:05;;;;;;;;;;;;;;;21.36;56.85;99668.75;5102088;28;19916;-78
2023/08/08 09:15:31;;;;;;;;;;;;;;;21.41;57.17;99659.97;5099545;28;20419;-79
2023/08/08 09:17:57;;;;;;;;;;;;;;;21.39;57.80;99654.03;5078311;28;19912;-79
2023/08/08 09:20:22;;;;;;;;;;;;;;;21.52;57.29;99657.19;5115042;28;19916;-78
2023/08/08 09:22:48;;;;;;;;;;;;;;;21.63;56.33;99654.66;5115206;28;20289;-78
2023/08/08 09:25:13;;;;;;;;;;;;;;;21.75;55.63;99647.31;5113648;28;19915;-78
2023/08/08 09:27:40;;;;;;;;;;;;;;;21.87;55.00;99648.81;5085762;28;19916;-79
2023/08/08 09:30:06;;;;;;;;;;;;;;;22.01;54.04;99641.19;5094471;28;19981;-79
2023/08/08 09:32:31;;;;;;;;;;;;;;;22.09;54.70;99651.53;5091883;28;20373;-77
2023/08/08 09:34:57;;;;;;;;;;;;;;;22.21;54.31;99648.72;5100396;28;19923;-78
2023/08/08 09:37:23;;;;;;;;;;;;;;;22.28;53.65;99653.91;5102682;28;20372;-78
2023/08/08 09:39:55;;;;;;;;;;;;;;;22.25;53.01;99647.16;5094349;28;19912;-78
2023/08/08 09:42:20;;;;;;;;;;;;;;;22.32;53.46;99649.69;5100312;28;20305;-79
2023/08/08 09:44:46;;;;;;;;;;;;;;;22.39;53.54;99642.22;5106606;28;19923;-78
2023/08/08 09:47:12;;;;;;;;;;;;;;;22.58;53.01;99634.63;5089891;28;19912;-78
2023/08/08 09:49:37;;;;;;;;;;;;;;;22.58;52.65;99635.44;5113927;28;19935;-79
2023/08/08 09:52:03;;;;;;;;;;;;;;;22.65;52.45;99629.84;5076106;28;20324;-78
2023/08/08 09:54:30;;;;;;;;;;;;;;;22.70;52.69;99630.69;5069933;28;19917;-78
2023/08/08 09:56:55;;;;;;;;;;;;;;;22.78;52.14;99635.63;5067790;28;19924;-78
2023/08/08 09:59:21;;;;;;;;;;;;;;;22.93;52.03;99644.94;5060854;28;19924;-78
2023/08/08 10:01:47;;;;;;;;;;;;;;;22.93;52.13;99645.75;5066292;28;19916;-78
2023/08/08 10:04:13;;;;;;;;;;;;;;;23.03;51.67;99645.00;5073392;28;19956;-78
2023/08/08 10:06:38;;;;;;;;;;;;;;;23.10;51.35;99651.03;5073309;28;20400;-78
2023/08/08 10:09:04;;;;;;;;;;;;;;;23.10;51.81;99649.13;5073821;28;19916;-77
2023/08/08 10:11:30;;;;;;;;;;;;;;;22.99;51.05;99644.72;5073740;28;19912;-78
2023/08/08 10:13:55;;;;;;;;;;;;;;;22.87;51.23;99648.63;5073409;28;20374;-77
2023/08/08 10:16:22;;;;;;;;;;;;;;;22.76;51.63;99639.63;5055563;28;19916;-79
2023/08/08 10:18:59;;;;;;;;;;;;;;;22.82;51.12;99642.16;5073157;28;19919;-79
2023/08/08 10:21:25;;;;;;;;;;;;;;;22.88;50.97;99645.69;5072752;28;20437;-79
2023/08/08 10:24:00;;;;;;;;;;;;;;;22.97;51.63;99633.38;5072872;28;19924;-78
2023/08/08 10:26:28;;;;;;;;;;;;;;;23.11;51.31;99629.22;5073249;28;19913;-79
2023/08/08 10:28:56;;;;;;;;;;;;;;;23.29;50.99;99630.69;5073275;28;19920;-78
2023/08/08 10:31:22;;;;;;;;;;;;;;;23.47;50.44;99632.16;5055043;28;20290;-78
2023/08/08 10:33:47;;;;;;;;;;;;;;;23.58;49.28;99627.66;5073242;28;19915;-77
2023/08/08 10:36:13;;;;;;;;;;;;;;;23.62;48.97;99626.88;5073261;28;19956;-78
2023/08/08 10:38:42;;;;;;;;;;;;;;;23.57;48.54;99626.03;5073360;28;20371;-78
2023/08/08 10:41:09;;;;;;;;;;;;;;;23.60;48.71;99620.94;5072052;28;20293;-78
2023/08/08 10:43:34;;;;;;;;;;;;;;;23.59;48.53;99621.19;5073020;28;19947;-76
2023/08/08 10:46:01;;;;;;;;;;;;;;;23.58;48.67;99622.28;5073111;28;19952;-77
2023/08/08 10:48:26;;;;;;;;;;;;;;;23.66;48.42;99614.50;5061301;28;19912;-78
2023/08/08 10:50:54;;;;;;;;;;;;;;;23.79;48.08;99615.94;5075424;28;19970;-78
2023/08/08 10:53:22;;;;;;;;;;;;;;;24.08;47.38;99613.63;5072639;28;19951;-76
2023/08/08 10:55:56;;;;;;;;;;;;;;;24.25;46.58;99608.00;5072767;28;19995;-76
2023/08/08 10:58:21;;;;;;;;;;;;;;;24.51;46.34;99604.31;5054670;28;20000;-75
2023/08/08 11:00:48;;;;;;;;;;;;;;;24.63;46.60;99609.50;5072478;28;20015;-76
2023/08/08 11:03:14;;;;;;;;;;;;;;;24.72;46.12;99607.88;5072763;28;19935;-77
2023/08/08 11:05:39;;;;;;;;;;;;;;;24.80;46.02;99603.81;5072633;28;20409;-76
2023/08/08 11:08:05;;;;;;;;;;;;;;;25.03;45.95;99597.91;5054691;28;20019;-77
2023/08/08 11:10:40;;;;;;;;;;;;;;;25.23;44.95;99602.47;5073926;28;19942;-79
2023/08/08 11:13:06;;;;;;;;;;;;;;;25.13;44.92;99595.19;5060386;28;19912;-77
2023/08/08 11:15:32;;;;;;;;;;;;;;;25.57;44.30;99589.97;5055505;28;20000;-78
2023/08/08 11:17:58;;;;;;;;;;;;;;;26.17;43.03;99588.16;5072277;28;20001;-78
2023/08/08 11:20:24;;;;;;;;;;;;;;;26.77;42.16;99588.88;5054155;28;19924;-78
2023/08/08 11:22:53;;;;;;;;;;;;;;;26.82;41.39;99588.03;5072385;28;19919;-78
2023/08/08 11:25:18;;;;;;;;;;;;;;;26.98;41.86;99589.53;5054244;28;19912;-78
2023/08/08 11:27:51;;;;;;;;;;;;;;;27.34;39.98;99581.88;5062012;28;19943;-77
2023/08/08 11:30:16;;;;;;;;;;;;;;;27.61;40.36;99583.25;5069412;28;19916;-77
2023/08/08 11:32:41;;;;;;;;;;;;;;;28.10;39.56;99580.19;5071870;28;20011;-76
2023/08/08 11:35:07;;;;;;;;;;;;;;;27.94;39.80;99579.59;5053764;28;19910;-77
2023/08/08 11:37:32;;;;;;;;;;;;;;;27.70;38.33;99565.25;5053640;28;19913;-77
2023/08/08 11:39:57;;;;;;;;;;;;;;;27.66;38.96;99573.16;5064334;28;19917;-78
2023/08/08 11:42:23;;;;;;;;;;;;;;;28.06;35.09;99569.09;5055587;28;19955;-79
2023/08/08 11:44:50;;;;;;;;;;;;;;;28.46;34.87;99559.63;5033722;28;19912;-78
2023/08/08 11:47:15;;;;;;;;;;;;;;;28.90;37.09;99561.09;5052660;28;20026;-78
2023/08/08 11:49:41;;;;;;;;;;;;;;;29.28;36.07;99556.34;5055972;28;20305;-78
2023/08/08 11:52:07;;;;;;;;;;;;;;;29.51;34.30;99551.84;5051701;28;20311;-77
2023/08/08 11:54:32;;;;;;;;;;;;;;;29.53;35.45;99546.91;5051531;28;19991;-79
2023/08/08 11:56:57;;;;;;;;;;;;;;;29.84;34.69;99540.84;5053009;28;19920;-78
2023/08/08 11:59:23;;;;;;;;;;;;;;;29.82;34.26;99534.91;5034088;28;19921;-78
2023/08/08 12:01:50;;;;;;;;;;;;;;;29.94;34.56;99536.00;5054132;28;21900;-77
2023/08/08 12:04:16;;;;;;;;;;;;;;;30.07;34.40;99534.38;5071365;28;19916;-77
2023/08/08 12:06:45;;;;;;;;;;;;;;;30.35;33.61;99540.53;5067874;28;19912;-76
2023/08/08 12:09:13;;;;;;;;;;;;;;;30.51;32.78;99525.44;5062543;28;19916;-78
2023/08/08 12:11:39;;;;;;;;;;;;;;;30.64;33.17;99515.63;5058273;28;19940;-78
2023/08/08 12:14:07;;;;;;;;;;;;;;;30.83;33.59;99521.66;5033627;28;19921;-77
2023/08/08 12:16:32;;;;;;;;;;;;;;;31.06;33.49;99514.25;5051624;28;19917;-78
2023/08/08 12:19:00;;;;;;;;;;;;;;;31.20;32.32;99516.88;5054465;28;19943;-78
2023/08/08 12:21:26;;;;;;;;;;;;;;;31.27;32.24;99501.69;5060731;28;19932;-77
2023/08/08 12:23:52;;;;;;;;;;;;;;;31.40;30.05;99502.69;5071137;28;19912;-77
2023/08/08 12:26:18;;;;;;;;;;;;;;;31.33;29.42;99496.09;5068813;28;20308;-78
2023/08/08 12:28:43;;;;;;;;;;;;;;;31.44;32.27;99497.41;5067282;28;19991;-77
2023/08/08 12:31:08;;;;;;;;;;;;;;;31.60;30.43;99487.66;5039615;28;19920;-76
2023/08/08 12:33:33;;;;;;;;;;;;;;;31.59;29.44;99475.94;5070242;28;19916;-77
2023/08/08 12:35:59;;;;;;;;;;;;;;;31.69;29.62;99479.47;5070130;28;19916;-77
2023/08/08 12:38:24;;;;;;;;;;;;;;;31.72;30.59;99482.41;5048437;28;20298;-77
2023/08/08 12:40:49;;;;;;;;;;;;;;;31.97;30.41;99482.78;5065802;28;19927;-76